sensor_id;sensor_type;location;lat;lon;timestamp;P1;durP1;ratioP1;P2;durP2;ratioP2
46036;SDS011;31769;49.304;8.428;2023-05-27T00:02:43;17.42;;;5.10;;
46036;SDS011;31769;49.304;8.428;2023-05-27T00:05:44;16.45;;;5.65;;
46036;SDS011;31769;49.304;8.428;2023-05-27T00:08:44;15.80;;;5.35;;
46036;SDS011;31769;49.304;8.428;2023-05-27T00:11:45;15.80;;;5.43;;
46036;SDS011;31769;49.304;8.428;2023-05-27T00:14:46;16.30;;;5.45;;
46036;SDS011;31769;49.304;8.428;2023-05-27T00:17:47;17.63;;;5.30;;
46036;SDS011;31769;49.304;8.428;2023-05-27T00:20:49;14.68;;;5.18;;
46036;SDS011;31769;49.304;8.428;2023-05-27T00:23:51;14.40;;;5.03;;
46036;SDS011;31769;49.304;8.428;2023-05-27T00:26:52;16.90;;;5.10;;
46036;SDS011;31769;49.304;8.428;2023-05-27T00:29:52;15.65;;;5.22;;
46036;SDS011;31769;49.304;8.428;2023-05-27T00:32:54;16.08;;;4.75;;
46036;SDS011;31769;49.304;8.428;2023-05-27T00:35:55;15.30;;;5.35;;
46036;SDS011;31769;49.304;8.428;2023-05-27T00:38:56;14.20;;;4.72;;
46036;SDS011;31769;49.304;8.428;2023-05-27T00:41:57;16.13;;;5.10;;
46036;SDS011;31769;49.304;8.428;2023-05-27T00:44:58;17.55;;;4.93;;
46036;SDS011;31769;49.304;8.428;2023-05-27T00:47:59;16.60;;;5.07;;
46036;SDS011;31769;49.304;8.428;2023-05-27T00:51:02;14.65;;;4.97;;
46036;SDS011;31769;49.304;8.428;2023-05-27T00:54:03;15.20;;;4.70;;
46036;SDS011;31769;49.304;8.428;2023-05-27T00:57:04;11.63;;;4.80;;
46036;SDS011;31769;49.304;8.428;2023-05-27T01:00:06;11.45;;;4.70;;
46036;SDS011;31769;49.304;8.428;2023-05-27T01:03:10;16.70;;;4.85;;
46036;SDS011;31769;49.304;8.428;2023-05-27T01:06:14;15.68;;;5.57;;
46036;SDS011;31769;49.304;8.428;2023-05-27T01:15:39;14.10;;;5.15;;
46036;SDS011;31769;49.304;8.428;2023-05-27T01:18:42;13.13;;;4.50;;
46036;SDS011;31769;49.304;8.428;2023-05-27T01:21:47;10.07;;;4.25;;
46036;SDS011;31769;49.304;8.428;2023-05-27T01:24:50;12.18;;;4.95;;
46036;SDS011;31769;49.304;8.428;2023-05-27T01:27:51;13.65;;;5.20;;
46036;SDS011;31769;49.304;8.428;2023-05-27T01:30:54;13.93;;;4.90;;
46036;SDS011;31769;49.304;8.428;2023-05-27T01:34:08;15.35;;;5.25;;
46036;SDS011;31769;49.304;8.428;2023-05-27T01:37:13;13.50;;;4.88;;
46036;SDS011;31769;49.304;8.428;2023-05-27T01:40:18;14.90;;;5.28;;
46036;SDS011;31769;49.304;8.428;2023-05-27T01:43:20;15.27;;;5.05;;
46036;SDS011;31769;49.304;8.428;2023-05-27T01:46:22;14.98;;;5.03;;
46036;SDS011;31769;49.304;8.428;2023-05-27T01:49:23;15.82;;;5.07;;
46036;SDS011;31769;49.304;8.428;2023-05-27T01:52:26;17.33;;;4.75;;
46036;SDS011;31769;49.304;8.428;2023-05-27T01:55:27;18.13;;;5.40;;
46036;SDS011;31769;49.304;8.428;2023-05-27T01:58:27;11.63;;;4.55;;
46036;SDS011;31769;49.304;8.428;2023-05-27T02:01:28;14.95;;;4.55;;
46036;SDS011;31769;49.304;8.428;2023-05-27T02:04:29;13.15;;;4.57;;
46036;SDS011;31769;49.304;8.428;2023-05-27T02:07:30;17.17;;;4.63;;
46036;SDS011;31769;49.304;8.428;2023-05-27T02:10:31;14.63;;;4.47;;
46036;SDS011;31769;49.304;8.428;2023-05-27T02:13:33;14.80;;;4.82;;
46036;SDS011;31769;49.304;8.428;2023-05-27T02:16:33;14.75;;;4.60;;
46036;SDS011;31769;49.304;8.428;2023-05-27T02:19:34;18.90;;;4.68;;
46036;SDS011;31769;49.304;8.428;2023-05-27T02:22:35;16.85;;;4.90;;
46036;SDS011;31769;49.304;8.428;2023-05-27T02:25:36;14.82;;;4.57;;
46036;SDS011;31769;49.304;8.428;2023-05-27T02:28:39;15.23;;;4.28;;
46036;SDS011;31769;49.304;8.428;2023-05-27T02:31:40;15.32;;;4.70;;
46036;SDS011;31769;49.304;8.428;2023-05-27T02:34:41;13.68;;;4.20;;
46036;SDS011;31769;49.304;8.428;2023-05-27T02:37:42;13.52;;;4.22;;
46036;SDS011;31769;49.304;8.428;2023-05-27T02:40:42;19.10;;;4.97;;
46036;SDS011;31769;49.304;8.428;2023-05-27T02:43:43;18.08;;;5.25;;
46036;SDS011;31769;49.304;8.428;2023-05-27T02:46:44;14.98;;;4.35;;
46036;SDS011;31769;49.304;8.428;2023-05-27T02:49:45;15.25;;;5.22;;
46036;SDS011;31769;49.304;8.428;2023-05-27T02:52:46;14.77;;;4.50;;
46036;SDS011;31769;49.304;8.428;2023-05-27T02:55:47;14.20;;;4.75;;
46036;SDS011;31769;49.304;8.428;2023-05-27T02:58:48;15.32;;;5.00;;
46036;SDS011;31769;49.304;8.428;2023-05-27T03:01:48;15.57;;;4.47;;
46036;SDS011;31769;49.304;8.428;2023-05-27T03:04:50;18.08;;;4.80;;
46036;SDS011;31769;49.304;8.428;2023-05-27T03:07:50;15.48;;;4.70;;
46036;SDS011;31769;49.304;8.428;2023-05-27T03:10:51;20.10;;;5.50;;
46036;SDS011;31769;49.304;8.428;2023-05-27T03:13:52;14.07;;;5.00;;
46036;SDS011;31769;49.304;8.428;2023-05-27T03:16:53;14.88;;;4.57;;
46036;SDS011;31769;49.304;8.428;2023-05-27T03:19:54;16.05;;;4.60;;
46036;SDS011;31769;49.304;8.428;2023-05-27T03:22:55;12.40;;;4.43;;
46036;SDS011;31769;49.304;8.428;2023-05-27T03:25:56;15.57;;;5.00;;
46036;SDS011;31769;49.304;8.428;2023-05-27T03:28:57;12.00;;;4.38;;
46036;SDS011;31769;49.304;8.428;2023-05-27T03:31:58;19.95;;;5.15;;
46036;SDS011;31769;49.304;8.428;2023-05-27T03:34:59;15.63;;;5.13;;
46036;SDS011;31769;49.304;8.428;2023-05-27T03:38:00;14.75;;;4.47;;
46036;SDS011;31769;49.304;8.428;2023-05-27T03:41:01;15.35;;;5.20;;
46036;SDS011;31769;49.304;8.428;2023-05-27T03:44:02;16.95;;;5.30;;
46036;SDS011;31769;49.304;8.428;2023-05-27T03:47:04;14.90;;;5.03;;
46036;SDS011;31769;49.304;8.428;2023-05-27T03:50:06;15.30;;;5.20;;
46036;SDS011;31769;49.304;8.428;2023-05-27T03:53:07;16.17;;;4.80;;
46036;SDS011;31769;49.304;8.428;2023-05-27T03:56:08;15.48;;;5.20;;
46036;SDS011;31769;49.304;8.428;2023-05-27T03:59:09;15.50;;;5.00;;
46036;SDS011;31769;49.304;8.428;2023-05-27T04:02:12;20.98;;;4.85;;
46036;SDS011;31769;49.304;8.428;2023-05-27T04:05:12;14.40;;;4.78;;
46036;SDS011;31769;49.304;8.428;2023-05-27T04:08:13;13.30;;;4.70;;
46036;SDS011;31769;49.304;8.428;2023-05-27T04:11:15;18.35;;;4.97;;
46036;SDS011;31769;49.304;8.428;2023-05-27T04:14:15;20.83;;;4.93;;
46036;SDS011;31769;49.304;8.428;2023-05-27T04:17:16;21.40;;;5.60;;
46036;SDS011;31769;49.304;8.428;2023-05-27T04:20:17;18.35;;;5.35;;
46036;SDS011;31769;49.304;8.428;2023-05-27T04:23:21;13.15;;;4.38;;
46036;SDS011;31769;49.304;8.428;2023-05-27T04:26:24;15.52;;;5.07;;
46036;SDS011;31769;49.304;8.428;2023-05-27T04:29:27;16.08;;;5.20;;
46036;SDS011;31769;49.304;8.428;2023-05-27T04:32:29;19.20;;;5.15;;
46036;SDS011;31769;49.304;8.428;2023-05-27T04:35:33;15.00;;;4.90;;
46036;SDS011;31769;49.304;8.428;2023-05-27T04:38:34;17.85;;;4.80;;
46036;SDS011;31769;49.304;8.428;2023-05-27T04:41:38;15.35;;;5.05;;
46036;SDS011;31769;49.304;8.428;2023-05-27T04:44:39;14.73;;;4.97;;
46036;SDS011;31769;49.304;8.428;2023-05-27T04:47:41;13.98;;;4.95;;
46036;SDS011;31769;49.304;8.428;2023-05-27T04:50:42;14.40;;;4.88;;
46036;SDS011;31769;49.304;8.428;2023-05-27T04:53:43;16.48;;;5.57;;
46036;SDS011;31769;49.304;8.428;2023-05-27T04:56:45;19.52;;;5.72;;
46036;SDS011;31769;49.304;8.428;2023-05-27T04:59:52;17.05;;;4.65;;
46036;SDS011;31769;49.304;8.428;2023-05-27T05:03:18;15.63;;;4.78;;
46036;SDS011;31769;49.304;8.428;2023-05-27T05:06:29;16.90;;;4.63;;
46036;SDS011;31769;49.304;8.428;2023-05-27T05:09:30;16.70;;;5.28;;
46036;SDS011;31769;49.304;8.428;2023-05-27T05:12:36;15.38;;;4.50;;
46036;SDS011;31769;49.304;8.428;2023-05-27T05:15:39;16.65;;;4.50;;
46036;SDS011;31769;49.304;8.428;2023-05-27T05:18:40;15.18;;;4.65;;
46036;SDS011;31769;49.304;8.428;2023-05-27T05:21:41;15.70;;;4.82;;
46036;SDS011;31769;49.304;8.428;2023-05-27T05:24:45;16.05;;;4.90;;
46036;SDS011;31769;49.304;8.428;2023-05-27T05:27:47;16.35;;;4.88;;
46036;SDS011;31769;49.304;8.428;2023-05-27T05:30:48;16.25;;;5.25;;
46036;SDS011;31769;49.304;8.428;2023-05-27T05:33:51;17.52;;;5.55;;
46036;SDS011;31769;49.304;8.428;2023-05-27T05:36:52;16.08;;;5.22;;
46036;SDS011;31769;49.304;8.428;2023-05-27T05:39:56;14.90;;;4.88;;
46036;SDS011;31769;49.304;8.428;2023-05-27T05:42:58;13.35;;;4.85;;
46036;SDS011;31769;49.304;8.428;2023-05-27T05:45:58;20.02;;;5.10;;
46036;SDS011;31769;49.304;8.428;2023-05-27T05:49:02;13.82;;;4.80;;
46036;SDS011;31769;49.304;8.428;2023-05-27T05:52:13;12.80;;;4.80;;
46036;SDS011;31769;49.304;8.428;2023-05-27T05:55:14;13.98;;;4.90;;
46036;SDS011;31769;49.304;8.428;2023-05-27T05:58:14;12.70;;;4.97;;
46036;SDS011;31769;49.304;8.428;2023-05-27T06:01:15;15.80;;;4.75;;
46036;SDS011;31769;49.304;8.428;2023-05-27T06:04:16;18.17;;;5.50;;
46036;SDS011;31769;49.304;8.428;2023-05-27T06:07:19;15.73;;;5.10;;
46036;SDS011;31769;49.304;8.428;2023-05-27T06:10:28;15.63;;;4.82;;
46036;SDS011;31769;49.304;8.428;2023-05-27T06:13:30;16.00;;;5.32;;
46036;SDS011;31769;49.304;8.428;2023-05-27T06:16:32;16.10;;;4.72;;
46036;SDS011;31769;49.304;8.428;2023-05-27T06:19:35;18.50;;;5.45;;
46036;SDS011;31769;49.304;8.428;2023-05-27T06:22:36;15.63;;;4.55;;
46036;SDS011;31769;49.304;8.428;2023-05-27T06:25:55;15.52;;;5.32;;
46036;SDS011;31769;49.304;8.428;2023-05-27T06:28:58;15.85;;;5.05;;
46036;SDS011;31769;49.304;8.428;2023-05-27T06:32:01;23.08;;;10.85;;
46036;SDS011;31769;49.304;8.428;2023-05-27T06:35:02;20.55;;;11.55;;
46036;SDS011;31769;49.304;8.428;2023-05-27T06:38:03;16.15;;;5.03;;
46036;SDS011;31769;49.304;8.428;2023-05-27T06:41:05;18.33;;;5.47;;
46036;SDS011;31769;49.304;8.428;2023-05-27T06:44:06;16.20;;;5.18;;
46036;SDS011;31769;49.304;8.428;2023-05-27T06:47:15;15.40;;;5.35;;
46036;SDS011;31769;49.304;8.428;2023-05-27T06:50:16;13.88;;;4.88;;
46036;SDS011;31769;49.304;8.428;2023-05-27T06:53:17;13.82;;;5.00;;
46036;SDS011;31769;49.304;8.428;2023-05-27T06:56:46;17.00;;;5.20;;
46036;SDS011;31769;49.304;8.428;2023-05-27T07:00:06;16.17;;;5.18;;
46036;SDS011;31769;49.304;8.428;2023-05-27T07:03:16;14.85;;;4.75;;
46036;SDS011;31769;49.304;8.428;2023-05-27T07:06:17;14.50;;;4.80;;
46036;SDS011;31769;49.304;8.428;2023-05-27T07:09:23;12.40;;;5.10;;
46036;SDS011;31769;49.304;8.428;2023-05-27T07:12:24;17.85;;;4.93;;
46036;SDS011;31769;49.304;8.428;2023-05-27T07:15:30;13.80;;;4.63;;
46036;SDS011;31769;49.304;8.428;2023-05-27T07:18:31;18.55;;;4.45;;
46036;SDS011;31769;49.304;8.428;2023-05-27T07:21:34;16.35;;;4.70;;
46036;SDS011;31769;49.304;8.428;2023-05-27T07:24:39;14.65;;;4.93;;
46036;SDS011;31769;49.304;8.428;2023-05-27T07:27:41;16.15;;;5.95;;
46036;SDS011;31769;49.304;8.428;2023-05-27T07:30:41;30.63;;;19.70;;
46036;SDS011;31769;49.304;8.428;2023-05-27T07:33:43;15.25;;;5.28;;
46036;SDS011;31769;49.304;8.428;2023-05-27T07:36:45;15.40;;;5.50;;
46036;SDS011;31769;49.304;8.428;2023-05-27T07:39:46;14.00;;;4.47;;
46036;SDS011;31769;49.304;8.428;2023-05-27T07:42:50;14.65;;;4.53;;
46036;SDS011;31769;49.304;8.428;2023-05-27T07:45:50;13.05;;;4.43;;
46036;SDS011;31769;49.304;8.428;2023-05-27T07:48:51;9.38;;;4.22;;
46036;SDS011;31769;49.304;8.428;2023-05-27T07:51:52;15.02;;;4.13;;
46036;SDS011;31769;49.304;8.428;2023-05-27T07:54:53;11.65;;;4.53;;
46036;SDS011;31769;49.304;8.428;2023-05-27T07:57:54;13.30;;;4.20;;
46036;SDS011;31769;49.304;8.428;2023-05-27T08:00:58;11.85;;;4.47;;
46036;SDS011;31769;49.304;8.428;2023-05-27T08:03:59;14.65;;;5.28;;
46036;SDS011;31769;49.304;8.428;2023-05-27T08:07:14;14.85;;;5.15;;
46036;SDS011;31769;49.304;8.428;2023-05-27T08:10:33;15.15;;;8.48;;
46036;SDS011;31769;49.304;8.428;2023-05-27T08:13:59;19.38;;;7.97;;
46036;SDS011;31769;49.304;8.428;2023-05-27T08:17:21;14.02;;;4.75;;
46036;SDS011;31769;49.304;8.428;2023-05-27T08:20:30;12.90;;;3.58;;
46036;SDS011;31769;49.304;8.428;2023-05-27T08:23:49;13.80;;;4.40;;
46036;SDS011;31769;49.304;8.428;2023-05-27T08:27:19;14.63;;;4.30;;
46036;SDS011;31769;49.304;8.428;2023-05-27T08:30:35;14.65;;;4.20;;
46036;SDS011;31769;49.304;8.428;2023-05-27T08:33:46;14.30;;;4.47;;
46036;SDS011;31769;49.304;8.428;2023-05-27T08:36:48;10.82;;;4.07;;
46036;SDS011;31769;49.304;8.428;2023-05-27T08:39:49;17.00;;;4.03;;
46036;SDS011;31769;49.304;8.428;2023-05-27T08:43:05;11.68;;;3.85;;
46036;SDS011;31769;49.304;8.428;2023-05-27T08:46:10;10.63;;;3.85;;
46036;SDS011;31769;49.304;8.428;2023-05-27T08:49:12;10.00;;;3.65;;
46036;SDS011;31769;49.304;8.428;2023-05-27T08:52:14;12.80;;;4.03;;
46036;SDS011;31769;49.304;8.428;2023-05-27T08:55:20;13.88;;;4.15;;
46036;SDS011;31769;49.304;8.428;2023-05-27T08:58:22;11.20;;;4.25;;
46036;SDS011;31769;49.304;8.428;2023-05-27T09:01:25;11.15;;;4.15;;
46036;SDS011;31769;49.304;8.428;2023-05-27T09:04:27;12.85;;;4.15;;
46036;SDS011;31769;49.304;8.428;2023-05-27T09:07:28;12.50;;;3.72;;
46036;SDS011;31769;49.304;8.428;2023-05-27T09:10:36;12.30;;;3.97;;
46036;SDS011;31769;49.304;8.428;2023-05-27T09:13:41;8.68;;;3.50;;
46036;SDS011;31769;49.304;8.428;2023-05-27T09:16:42;12.93;;;3.80;;
46036;SDS011;31769;49.304;8.428;2023-05-27T09:19:46;10.18;;;3.58;;
46036;SDS011;31769;49.304;8.428;2023-05-27T09:22:47;10.10;;;3.83;;
46036;SDS011;31769;49.304;8.428;2023-05-27T09:25:47;13.57;;;4.70;;
46036;SDS011;31769;49.304;8.428;2023-05-27T09:28:50;10.25;;;4.05;;
46036;SDS011;31769;49.304;8.428;2023-05-27T09:31:53;15.30;;;3.88;;
46036;SDS011;31769;49.304;8.428;2023-05-27T09:34:58;11.00;;;3.72;;
46036;SDS011;31769;49.304;8.428;2023-05-27T09:38:06;10.50;;;4.43;;
46036;SDS011;31769;49.304;8.428;2023-05-27T09:41:07;10.05;;;4.20;;
46036;SDS011;31769;49.304;8.428;2023-05-27T09:44:08;11.20;;;4.35;;
46036;SDS011;31769;49.304;8.428;2023-05-27T09:47:09;11.77;;;4.65;;
46036;SDS011;31769;49.304;8.428;2023-05-27T09:50:10;15.38;;;5.60;;
46036;SDS011;31769;49.304;8.428;2023-05-27T09:53:14;13.13;;;5.00;;
46036;SDS011;31769;49.304;8.428;2023-05-27T09:56:15;14.13;;;4.85;;
46036;SDS011;31769;49.304;8.428;2023-05-27T09:59:16;12.88;;;4.57;;
46036;SDS011;31769;49.304;8.428;2023-05-27T10:02:17;10.20;;;4.35;;
46036;SDS011;31769;49.304;8.428;2023-05-27T10:05:20;12.25;;;4.18;;
46036;SDS011;31769;49.304;8.428;2023-05-27T10:08:21;18.90;;;11.45;;
46036;SDS011;31769;49.304;8.428;2023-05-27T10:11:22;12.48;;;4.45;;
46036;SDS011;31769;49.304;8.428;2023-05-27T10:14:26;11.07;;;4.55;;
46036;SDS011;31769;49.304;8.428;2023-05-27T10:17:39;12.43;;;3.97;;
46036;SDS011;31769;49.304;8.428;2023-05-27T10:20:52;11.15;;;4.40;;
46036;SDS011;31769;49.304;8.428;2023-05-27T10:27:01;12.70;;;4.20;;
46036;SDS011;31769;49.304;8.428;2023-05-27T10:30:03;9.57;;;3.75;;
46036;SDS011;31769;49.304;8.428;2023-05-27T10:33:04;8.27;;;4.13;;
46036;SDS011;31769;49.304;8.428;2023-05-27T10:36:09;11.20;;;4.25;;
46036;SDS011;31769;49.304;8.428;2023-05-27T10:39:18;11.55;;;4.00;;
46036;SDS011;31769;49.304;8.428;2023-05-27T10:42:22;9.50;;;4.15;;
46036;SDS011;31769;49.304;8.428;2023-05-27T10:45:30;10.38;;;4.18;;
46036;SDS011;31769;49.304;8.428;2023-05-27T10:48:32;13.05;;;4.35;;
46036;SDS011;31769;49.304;8.428;2023-05-27T10:51:34;10.75;;;4.10;;
46036;SDS011;31769;49.304;8.428;2023-05-27T10:54:34;9.75;;;3.92;;
46036;SDS011;31769;49.304;8.428;2023-05-27T10:57:36;10.55;;;4.10;;
46036;SDS011;31769;49.304;8.428;2023-05-27T11:00:36;8.73;;;3.88;;
46036;SDS011;31769;49.304;8.428;2023-05-27T11:03:43;10.35;;;4.30;;
46036;SDS011;31769;49.304;8.428;2023-05-27T11:06:58;11.77;;;4.13;;
46036;SDS011;31769;49.304;8.428;2023-05-27T11:10:00;11.43;;;3.92;;
46036;SDS011;31769;49.304;8.428;2023-05-27T11:13:00;13.60;;;4.13;;
46036;SDS011;31769;49.304;8.428;2023-05-27T11:16:03;8.73;;;4.03;;
46036;SDS011;31769;49.304;8.428;2023-05-27T11:19:04;9.18;;;4.90;;
46036;SDS011;31769;49.304;8.428;2023-05-27T11:22:06;9.00;;;4.93;;
46036;SDS011;31769;49.304;8.428;2023-05-27T11:25:10;8.68;;;4.25;;
46036;SDS011;31769;49.304;8.428;2023-05-27T11:28:18;11.13;;;4.80;;
46036;SDS011;31769;49.304;8.428;2023-05-27T11:31:20;10.05;;;4.60;;
46036;SDS011;31769;49.304;8.428;2023-05-27T11:34:27;11.55;;;5.55;;
46036;SDS011;31769;49.304;8.428;2023-05-27T11:37:32;10.55;;;4.13;;
46036;SDS011;31769;49.304;8.428;2023-05-27T11:40:35;8.95;;;4.47;;
46036;SDS011;31769;49.304;8.428;2023-05-27T11:43:48;10.27;;;4.40;;
46036;SDS011;31769;49.304;8.428;2023-05-27T11:47:00;14.55;;;4.82;;
46036;SDS011;31769;49.304;8.428;2023-05-27T11:50:04;8.52;;;4.00;;
46036;SDS011;31769;49.304;8.428;2023-05-27T11:53:07;8.27;;;4.05;;
46036;SDS011;31769;49.304;8.428;2023-05-27T11:56:17;9.35;;;3.97;;
46036;SDS011;31769;49.304;8.428;2023-05-27T11:59:22;11.32;;;3.97;;
46036;SDS011;31769;49.304;8.428;2023-05-27T12:02:24;7.43;;;3.50;;
46036;SDS011;31769;49.304;8.428;2023-05-27T12:05:27;8.73;;;3.53;;
46036;SDS011;31769;49.304;8.428;2023-05-27T12:08:29;11.35;;;4.38;;
46036;SDS011;31769;49.304;8.428;2023-05-27T12:11:30;6.18;;;3.42;;
46036;SDS011;31769;49.304;8.428;2023-05-27T12:14:32;11.35;;;5.20;;
46036;SDS011;31769;49.304;8.428;2023-05-27T12:17:32;10.95;;;3.20;;
46036;SDS011;31769;49.304;8.428;2023-05-27T12:20:33;6.60;;;3.20;;
46036;SDS011;31769;49.304;8.428;2023-05-27T12:23:33;9.10;;;3.65;;
46036;SDS011;31769;49.304;8.428;2023-05-27T12:26:34;5.93;;;3.00;;
46036;SDS011;31769;49.304;8.428;2023-05-27T12:29:37;8.98;;;3.33;;
46036;SDS011;31769;49.304;8.428;2023-05-27T12:32:37;6.88;;;3.10;;
46036;SDS011;31769;49.304;8.428;2023-05-27T12:35:38;7.13;;;2.75;;
46036;SDS011;31769;49.304;8.428;2023-05-27T12:38:39;8.70;;;3.00;;
46036;SDS011;31769;49.304;8.428;2023-05-27T12:41:40;6.03;;;2.75;;
46036;SDS011;31769;49.304;8.428;2023-05-27T12:44:41;8.00;;;3.25;;
46036;SDS011;31769;49.304;8.428;2023-05-27T12:47:42;6.60;;;2.92;;
46036;SDS011;31769;49.304;8.428;2023-05-27T12:50:43;7.15;;;3.65;;
46036;SDS011;31769;49.304;8.428;2023-05-27T12:53:44;5.13;;;2.50;;
46036;SDS011;31769;49.304;8.428;2023-05-27T12:56:45;4.95;;;2.60;;
46036;SDS011;31769;49.304;8.428;2023-05-27T12:59:45;5.38;;;2.22;;
46036;SDS011;31769;49.304;8.428;2023-05-27T13:02:46;4.05;;;2.28;;
46036;SDS011;31769;49.304;8.428;2023-05-27T13:05:47;3.63;;;2.15;;
46036;SDS011;31769;49.304;8.428;2023-05-27T13:08:48;7.00;;;2.20;;
46036;SDS011;31769;49.304;8.428;2023-05-27T13:11:48;5.72;;;2.35;;
46036;SDS011;31769;49.304;8.428;2023-05-27T13:14:49;6.50;;;2.33;;
46036;SDS011;31769;49.304;8.428;2023-05-27T13:17:50;4.28;;;2.10;;
46036;SDS011;31769;49.304;8.428;2023-05-27T13:20:51;6.95;;;2.35;;
46036;SDS011;31769;49.304;8.428;2023-05-27T13:23:52;4.40;;;1.65;;
46036;SDS011;31769;49.304;8.428;2023-05-27T13:26:53;6.68;;;1.98;;
46036;SDS011;31769;49.304;8.428;2023-05-27T13:29:53;5.85;;;1.90;;
46036;SDS011;31769;49.304;8.428;2023-05-27T13:32:54;3.83;;;1.83;;
46036;SDS011;31769;49.304;8.428;2023-05-27T13:35:55;5.10;;;1.85;;
46036;SDS011;31769;49.304;8.428;2023-05-27T13:38:56;2.63;;;1.58;;
46036;SDS011;31769;49.304;8.428;2023-05-27T13:41:57;10.90;;;2.15;;
46036;SDS011;31769;49.304;8.428;2023-05-27T13:44:58;4.13;;;1.90;;
46036;SDS011;31769;49.304;8.428;2023-05-27T13:47:59;3.72;;;1.52;;
46036;SDS011;31769;49.304;8.428;2023-05-27T13:51:00;4.55;;;1.95;;
46036;SDS011;31769;49.304;8.428;2023-05-27T13:54:01;4.10;;;1.60;;
46036;SDS011;31769;49.304;8.428;2023-05-27T13:57:02;3.25;;;1.60;;
46036;SDS011;31769;49.304;8.428;2023-05-27T14:00:02;3.67;;;1.60;;
46036;SDS011;31769;49.304;8.428;2023-05-27T14:03:04;4.88;;;2.10;;
46036;SDS011;31769;49.304;8.428;2023-05-27T14:06:05;4.47;;;1.70;;
46036;SDS011;31769;49.304;8.428;2023-05-27T14:09:06;3.85;;;1.77;;
46036;SDS011;31769;49.304;8.428;2023-05-27T14:12:07;3.65;;;1.80;;
46036;SDS011;31769;49.304;8.428;2023-05-27T14:15:08;4.07;;;1.55;;
46036;SDS011;31769;49.304;8.428;2023-05-27T14:18:09;3.30;;;1.48;;
46036;SDS011;31769;49.304;8.428;2023-05-27T14:21:10;6.63;;;1.38;;
46036;SDS011;31769;49.304;8.428;2023-05-27T14:24:10;7.60;;;1.75;;
46036;SDS011;31769;49.304;8.428;2023-05-27T14:27:12;4.05;;;1.75;;
46036;SDS011;31769;49.304;8.428;2023-05-27T14:30:13;2.67;;;1.80;;
46036;SDS011;31769;49.304;8.428;2023-05-27T14:33:14;4.35;;;1.75;;
46036;SDS011;31769;49.304;8.428;2023-05-27T14:36:14;5.15;;;1.65;;
46036;SDS011;31769;49.304;8.428;2023-05-27T14:39:15;4.97;;;1.70;;
46036;SDS011;31769;49.304;8.428;2023-05-27T14:42:16;3.40;;;1.52;;
46036;SDS011;31769;49.304;8.428;2023-05-27T14:45:17;2.88;;;1.40;;
46036;SDS011;31769;49.304;8.428;2023-05-27T14:48:20;3.90;;;1.35;;
46036;SDS011;31769;49.304;8.428;2023-05-27T14:51:21;2.72;;;1.33;;
46036;SDS011;31769;49.304;8.428;2023-05-27T14:54:22;2.38;;;1.38;;
46036;SDS011;31769;49.304;8.428;2023-05-27T14:57:22;4.00;;;1.17;;
46036;SDS011;31769;49.304;8.428;2023-05-27T15:00:23;4.20;;;1.40;;
46036;SDS011;31769;49.304;8.428;2023-05-27T15:03:23;4.32;;;1.23;;
46036;SDS011;31769;49.304;8.428;2023-05-27T15:06:24;2.45;;;1.20;;
46036;SDS011;31769;49.304;8.428;2023-05-27T15:09:25;2.42;;;1.17;;
46036;SDS011;31769;49.304;8.428;2023-05-27T15:12:39;4.18;;;1.20;;
46036;SDS011;31769;49.304;8.428;2023-05-27T15:15:43;1.90;;;1.23;;
46036;SDS011;31769;49.304;8.428;2023-05-27T15:18:44;3.78;;;1.60;;
46036;SDS011;31769;49.304;8.428;2023-05-27T15:21:45;3.22;;;1.20;;
46036;SDS011;31769;49.304;8.428;2023-05-27T15:24:45;6.75;;;1.05;;
46036;SDS011;31769;49.304;8.428;2023-05-27T15:27:46;4.43;;;1.30;;
46036;SDS011;31769;49.304;8.428;2023-05-27T15:30:46;2.97;;;1.48;;
46036;SDS011;31769;49.304;8.428;2023-05-27T15:33:48;3.03;;;1.90;;
46036;SDS011;31769;49.304;8.428;2023-05-27T15:39:51;4.77;;;3.00;;
46036;SDS011;31769;49.304;8.428;2023-05-27T15:42:51;5.28;;;2.30;;
46036;SDS011;31769;49.304;8.428;2023-05-27T15:45:52;3.25;;;1.25;;
46036;SDS011;31769;49.304;8.428;2023-05-27T15:48:52;3.05;;;1.55;;
46036;SDS011;31769;49.304;8.428;2023-05-27T15:51:53;6.18;;;1.30;;
46036;SDS011;31769;49.304;8.428;2023-05-27T15:54:54;7.10;;;2.35;;
46036;SDS011;31769;49.304;8.428;2023-05-27T15:57:55;2.70;;;1.60;;
46036;SDS011;31769;49.304;8.428;2023-05-27T16:00:55;5.97;;;3.72;;
46036;SDS011;31769;49.304;8.428;2023-05-27T16:03:56;6.05;;;4.30;;
46036;SDS011;31769;49.304;8.428;2023-05-27T16:06:56;5.65;;;1.90;;
46036;SDS011;31769;49.304;8.428;2023-05-27T16:09:57;3.75;;;1.70;;
46036;SDS011;31769;49.304;8.428;2023-05-27T16:12:58;19.55;;;16.63;;
46036;SDS011;31769;49.304;8.428;2023-05-27T16:15:59;34.00;;;29.65;;
46036;SDS011;31769;49.304;8.428;2023-05-27T16:19:00;21.00;;;16.23;;
46036;SDS011;31769;49.304;8.428;2023-05-27T16:22:01;38.60;;;31.98;;
46036;SDS011;31769;49.304;8.428;2023-05-27T16:25:01;95.05;;;83.85;;
46036;SDS011;31769;49.304;8.428;2023-05-27T16:28:02;103.88;;;87.55;;
46036;SDS011;31769;49.304;8.428;2023-05-27T16:31:03;134.65;;;119.50;;
46036;SDS011;31769;49.304;8.428;2023-05-27T16:34:03;90.70;;;81.20;;
46036;SDS011;31769;49.304;8.428;2023-05-27T16:37:04;58.30;;;52.10;;
46036;SDS011;31769;49.304;8.428;2023-05-27T16:40:05;62.67;;;54.75;;
46036;SDS011;31769;49.304;8.428;2023-05-27T16:43:08;14.77;;;12.95;;
46036;SDS011;31769;49.304;8.428;2023-05-27T16:46:08;11.40;;;10.25;;
46036;SDS011;31769;49.304;8.428;2023-05-27T16:49:09;8.15;;;5.95;;
46036;SDS011;31769;49.304;8.428;2023-05-27T16:52:10;6.47;;;3.90;;
46036;SDS011;31769;49.304;8.428;2023-05-27T16:55:10;39.97;;;34.30;;
46036;SDS011;31769;49.304;8.428;2023-05-27T16:58:11;129.15;;;114.53;;
46036;SDS011;31769;49.304;8.428;2023-05-27T17:01:12;39.00;;;35.10;;
46036;SDS011;31769;49.304;8.428;2023-05-27T17:04:13;201.43;;;180.40;;
46036;SDS011;31769;49.304;8.428;2023-05-27T17:07:13;74.35;;;60.85;;
46036;SDS011;31769;49.304;8.428;2023-05-27T17:10:14;93.18;;;59.95;;
46036;SDS011;31769;49.304;8.428;2023-05-27T17:13:15;41.22;;;36.65;;
46036;SDS011;31769;49.304;8.428;2023-05-27T17:16:16;12.05;;;7.82;;
46036;SDS011;31769;49.304;8.428;2023-05-27T17:19:16;8.75;;;7.75;;
46036;SDS011;31769;49.304;8.428;2023-05-27T17:22:17;9.90;;;5.22;;
46036;SDS011;31769;49.304;8.428;2023-05-27T17:25:18;6.47;;;3.67;;
46036;SDS011;31769;49.304;8.428;2023-05-27T17:28:19;5.07;;;3.00;;
46036;SDS011;31769;49.304;8.428;2023-05-27T17:31:19;5.53;;;2.92;;
46036;SDS011;31769;49.304;8.428;2023-05-27T17:34:20;5.57;;;2.90;;
46036;SDS011;31769;49.304;8.428;2023-05-27T17:37:21;6.95;;;2.50;;
46036;SDS011;31769;49.304;8.428;2023-05-27T17:40:21;9.68;;;2.55;;
46036;SDS011;31769;49.304;8.428;2023-05-27T17:43:22;5.03;;;2.70;;
46036;SDS011;31769;49.304;8.428;2023-05-27T17:46:23;5.13;;;2.30;;
46036;SDS011;31769;49.304;8.428;2023-05-27T17:49:24;5.07;;;2.25;;
46036;SDS011;31769;49.304;8.428;2023-05-27T17:52:25;6.50;;;2.60;;
46036;SDS011;31769;49.304;8.428;2023-05-27T17:55:25;7.38;;;2.78;;
46036;SDS011;31769;49.304;8.428;2023-05-27T17:58:26;5.75;;;2.92;;
46036;SDS011;31769;49.304;8.428;2023-05-27T18:01:27;8.52;;;2.72;;
46036;SDS011;31769;49.304;8.428;2023-05-27T18:04:29;7.18;;;2.75;;
46036;SDS011;31769;49.304;8.428;2023-05-27T18:07:30;7.75;;;2.70;;
46036;SDS011;31769;49.304;8.428;2023-05-27T18:10:30;10.40;;;2.83;;
46036;SDS011;31769;49.304;8.428;2023-05-27T18:13:31;5.47;;;2.83;;
46036;SDS011;31769;49.304;8.428;2023-05-27T18:16:32;7.32;;;2.80;;
46036;SDS011;31769;49.304;8.428;2023-05-27T18:19:33;7.00;;;3.30;;
46036;SDS011;31769;49.304;8.428;2023-05-27T18:22:33;8.23;;;3.88;;